Time;durP1;ratioP1;P1;durP2;ratioP2;P2;SDS_P1;SDS_P2;PMS_P1;PMS_P2;Temp;Humidity;BMP_temperature;BMP_pressure;BME280_temperature;BME280_humidity;BME280_pressure;Samples;Min_cycle;Max_cycle;Signal;HPM_P1;HPM_P2
2024/04/04 00:02:04;;;;;;;;;;;;;;;18.88;33.36;99412.84;5054284;28;20500;-83
2024/04/04 00:04:30;;;;;;;;;;;;;;;18.86;33.33;99421.13;5053984;28;20444;-83
2024/04/04 00:06:55;;;;;;;;;;;;;;;18.87;33.26;99428.09;5054155;28;19928;-83
2024/04/04 00:09:20;;;;;;;;;;;;;;;18.86;33.69;99431.00;5069530;28;20304;-83
2024/04/04 00:11:45;;;;;;;;;;;;;;;18.81;32.96;99431.72;5053208;28;19917;-83
2024/04/04 00:14:11;;;;;;;;;;;;;;;18.80;33.26;99438.09;5054033;28;19920;-83
2024/04/04 00:16:37;;;;;;;;;;;;;;;18.79;33.57;99441.81;5053753;28;19940;-83
2024/04/04 00:19:02;;;;;;;;;;;;;;;18.78;33.65;99434.84;5053777;28;19913;-83
2024/04/04 00:21:28;;;;;;;;;;;;;;;18.78;32.59;99437.53;5053848;28;19955;-82
2024/04/04 00:23:53;;;;;;;;;;;;;;;18.80;32.71;99438.09;5069245;28;19917;-82
2024/04/04 00:26:20;;;;;;;;;;;;;;;18.77;32.87;99433.22;5069128;28;19909;-83
2024/04/04 00:28:45;;;;;;;;;;;;;;;18.78;32.89;99426.81;5052372;28;19920;-83
2024/04/04 00:31:10;;;;;;;;;;;;;;;18.76;33.14;99428.94;5053506;28;19909;-83
2024/04/04 00:33:36;;;;;;;;;;;;;;;18.75;33.39;99427.28;5053587;28;19920;-82
2024/04/04 00:36:01;;;;;;;;;;;;;;;18.79;32.48;99433.00;5068836;28;19916;-83
2024/04/04 00:38:27;;;;;;;;;;;;;;;18.75;33.09;99437.19;5053583;28;19913;-83
2024/04/04 00:40:52;;;;;;;;;;;;;;;18.74;33.28;99433.69;5053214;28;19970;-84
2024/04/04 00:43:17;;;;;;;;;;;;;;;18.76;32.56;99436.94;5053327;28;19965;-84
2024/04/04 00:45:43;;;;;;;;;;;;;;;18.72;33.25;99438.47;5053396;28;19913;-84
2024/04/04 00:48:09;;;;;;;;;;;;;;;18.68;33.19;99430.09;5053321;28;19913;-84
2024/04/04 00:50:35;;;;;;;;;;;;;;;18.64;33.75;99428.94;5051961;28;19913;-83
2024/04/04 00:53:01;;;;;;;;;;;;;;;18.63;33.27;99427.31;5068530;28;19912;-83
2024/04/04 00:55:26;;;;;;;;;;;;;;;18.59;33.57;99426.09;5053129;28;19960;-82
2024/04/04 00:57:52;;;;;;;;;;;;;;;18.59;33.11;99427.97;5051764;28;19920;-82
2024/04/04 01:00:18;;;;;;;;;;;;;;;18.56;32.84;99429.22;5052993;28;19980;-82
2024/04/04 01:02:43;;;;;;;;;;;;;;;18.48;33.92;99429.56;5052673;28;19928;-83
2024/04/04 01:05:08;;;;;;;;;;;;;;;18.45;33.35;99423.88;5052798;28;19960;-83
2024/04/04 01:07:34;;;;;;;;;;;;;;;18.39;33.97;99428.28;5051386;28;19923;-83
2024/04/04 01:10:09;;;;;;;;;;;;;;;18.36;33.45;99429.56;5068075;28;19913;-82
2024/04/04 01:12:34;;;;;;;;;;;;;;;18.28;34.54;99429.09;5052867;28;20439;-82
2024/04/04 01:15:00;;;;;;;;;;;;;;;18.23;34.57;99429.78;5051194;28;20000;-83
2024/04/04 01:17:25;;;;;;;;;;;;;;;18.23;34.63;99434.31;5052492;28;19969;-83
2024/04/04 01:19:53;;;;;;;;;;;;;;;18.25;34.33;99437.56;5052660;28;19913;-83
2024/04/04 01:22:18;;;;;;;;;;;;;;;18.24;34.31;99435.94;5052562;28;19913;-83
2024/04/04 01:24:44;;;;;;;;;;;;;;;18.24;34.14;99431.41;5066816;28;20046;-83
2024/04/04 01:27:09;;;;;;;;;;;;;;;18.27;33.78;99428.28;5052315;28;20329;-83
2024/04/04 01:29:34;;;;;;;;;;;;;;;18.31;33.80;99425.94;5052476;28;19995;-84
2024/04/04 01:31:59;;;;;;;;;;;;;;;18.30;34.54;99432.34;5051101;28;19978;-83
2024/04/04 01:34:25;;;;;;;;;;;;;;;18.28;34.38;99426.41;5051028;28;20395;-83
2024/04/04 01:36:51;;;;;;;;;;;;;;;18.25;34.26;99427.69;5052139;28;19921;-83
2024/04/04 01:39:17;;;;;;;;;;;;;;;18.25;33.71;99427.69;5052289;28;19913;-83
2024/04/04 01:41:43;;;;;;;;;;;;;;;18.23;34.06;99418.28;5052492;28;20294;-83
2024/04/04 01:44:09;;;;;;;;;;;;;;;18.23;34.20;99419.09;5052393;28;19913;-82
2024/04/04 01:46:34;;;;;;;;;;;;;;;18.26;34.57;99418.63;5052252;28;19920;-83
2024/04/04 01:48:59;;;;;;;;;;;;;;;18.28;34.89;99421.06;5052228;28;19912;-83
2024/04/04 01:51:25;;;;;;;;;;;;;;;18.26;34.26;99423.97;5052219;28;19952;-82
2024/04/04 01:53:50;;;;;;;;;;;;;;;18.25;34.28;99419.69;5052081;28;19948;-82
2024/04/04 01:56:15;;;;;;;;;;;;;;;18.22;34.14;99424.66;5051768;28;20383;-82
2024/04/04 01:58:40;;;;;;;;;;;;;;;18.21;33.74;99433.72;5050620;28;19995;-83
2024/04/04 02:01:06;;;;;;;;;;;;;;;18.14;35.46;99430.34;5052124;28;20282;-83
2024/04/04 02:03:31;;;;;;;;;;;;;;;18.10;35.08;99435.34;5050633;28;19972;-83
2024/04/04 02:05:57;;;;;;;;;;;;;;;18.12;34.61;99438.59;5052095;28;19913;-83
2024/04/04 02:08:22;;;;;;;;;;;;;;;18.12;34.04;99438.59;5051898;28;19916;-83
2024/04/04 02:10:47;;;;;;;;;;;;;;;18.08;35.11;99432.91;5051994;28;20389;-83
2024/04/04 02:13:12;;;;;;;;;;;;;;;18.06;34.81;99434.16;5052242;28;19936;-83
2024/04/04 02:15:41;;;;;;;;;;;;;;;18.02;35.23;99430.31;5051769;28;19923;-83
2024/04/04 02:18:07;;;;;;;;;;;;;;;18.02;35.02;99430.31;5051796;28;19913;-83
2024/04/04 02:20:32;;;;;;;;;;;;;;;17.96;35.95;99426.72;5052028;28;19909;-83
2024/04/04 02:22:58;;;;;;;;;;;;;;;17.96;35.30;99418.69;5051824;28;19912;-83
2024/04/04 02:25:23;;;;;;;;;;;;;;;17.95;35.25;99417.06;5066932;28;19916;-84
2024/04/04 02:27:48;;;;;;;;;;;;;;;17.94;34.65;99425.31;5051625;28;20282;-83
2024/04/04 02:30:14;;;;;;;;;;;;;;;17.95;34.23;99426.94;5051811;28;19970;-83
2024/04/04 02:32:39;;;;;;;;;;;;;;;17.93;34.88;99421.81;5066953;28;19919;-84
2024/04/04 02:35:04;;;;;;;;;;;;;;;17.91;34.66;99420.44;5067995;28;19925;-83
2024/04/04 02:37:30;;;;;;;;;;;;;;;17.83;34.84;99416.19;5054441;28;20425;-83
2024/04/04 02:39:55;;;;;;;;;;;;;;;17.82;35.97;99417.25;5055686;28;19912;-83
2024/04/04 02:42:21;;;;;;;;;;;;;;;17.78;35.78;99411.53;5070893;28;20586;-83
2024/04/04 02:44:46;;;;;;;;;;;;;;;17.72;34.92;99414.31;5055590;28;20350;-83
2024/04/04 02:47:11;;;;;;;;;;;;;;;17.65;36.61;99413.56;5071034;28;19920;-83
2024/04/04 02:49:36;;;;;;;;;;;;;;;17.55;36.18;99407.94;5055540;28;19917;-83
2024/04/04 02:52:02;;;;;;;;;;;;;;;17.53;36.92;99408.19;5055436;28;19919;-83
2024/04/04 02:54:27;;;;;;;;;;;;;;;17.49;36.75;99401.66;5055483;28;20389;-83
2024/04/04 02:56:52;;;;;;;;;;;;;;;17.49;37.79;99401.66;5055353;28;19927;-83
2024/04/04 02:59:17;;;;;;;;;;;;;;;17.43;36.50;99398.03;5055268;28;19966;-82
2024/04/04 03:01:43;;;;;;;;;;;;;;;17.40;37.44;99406.50;5055421;28;20004;-83
2024/04/04 03:04:09;;;;;;;;;;;;;;;17.39;38.60;99401.38;5053798;28;19921;-84
2024/04/04 03:06:35;;;;;;;;;;;;;;;17.38;36.75;99397.91;5055183;28;19975;-83
2024/04/04 03:09:00;;;;;;;;;;;;;;;17.36;38.50;99401.84;5053734;28;20013;-82
2024/04/04 03:11:26;;;;;;;;;;;;;;;17.34;38.94;99410.06;5054970;28;19963;-83
2024/04/04 03:13:51;;;;;;;;;;;;;;;17.28;39.74;99415.50;5054895;28;20015;-83
2024/04/04 03:16:17;;;;;;;;;;;;;;;17.23;39.46;99418.81;5054872;28;19979;-84
2024/04/04 03:18:42;;;;;;;;;;;;;;;17.21;39.76;99414.75;5054948;28;19913;-84
2024/04/04 03:21:07;;;;;;;;;;;;;;;17.23;39.26;99423.34;5054916;28;20420;-83
2024/04/04 03:23:32;;;;;;;;;;;;;;;17.18;40.08;99424.03;5054939;28;19913;-83
2024/04/04 03:25:58;;;;;;;;;;;;;;;17.17;39.30;99424.25;5054809;28;19912;-83
2024/04/04 03:28:23;;;;;;;;;;;;;;;17.19;39.08;99428.31;5054576;28;20404;-83
2024/04/04 03:30:48;;;;;;;;;;;;;;;17.21;38.56;99428.91;5054855;28;19913;-83
2024/04/04 03:33:13;;;;;;;;;;;;;;;17.20;38.22;99431.81;5054684;28;19956;-83
2024/04/04 03:35:39;;;;;;;;;;;;;;;17.18;38.22;99428.53;5069969;28;19971;-82
2024/04/04 03:38:04;;;;;;;;;;;;;;;17.13;40.23;99426.53;5053393;28;20009;-83
2024/04/04 03:40:30;;;;;;;;;;;;;;;17.11;39.84;99429.44;5054515;28;19912;-82
2024/04/04 03:42:56;;;;;;;;;;;;;;;17.05;39.71;99438.31;5054528;28;19909;-82
2024/04/04 03:45:21;;;;;;;;;;;;;;;17.06;39.50;99444.44;5054531;28;20393;-83
2024/04/04 03:47:46;;;;;;;;;;;;;;;17.05;39.22;99446.31;5053148;28;19916;-83
2024/04/04 03:50:12;;;;;;;;;;;;;;;17.08;38.80;99439.72;5053230;28;20015;-84
2024/04/04 03:52:37;;;;;;;;;;;;;;;17.12;39.40;99438.25;5054458;28;19916;-82
2024/04/04 03:55:02;;;;;;;;;;;;;;;17.08;38.63;99442.38;5054209;28;19920;-84
2024/04/04 03:57:28;;;;;;;;;;;;;;;16.93;40.41;99450.75;5055051;28;19924;-84
2024/04/04 03:59:53;;;;;;;;;;;;;;;16.84;38.63;99452.88;5055239;28;20427;-83
2024/04/04 04:02:18;;;;;;;;;;;;;;;16.83;38.43;99450.44;5054218;28;19913;-83
2024/04/04 04:04:44;;;;;;;;;;;;;;;16.62;39.86;99450.81;5053808;28;19921;-83
2024/04/04 04:07:10;;;;;;;;;;;;;;;16.53;39.86;99450.28;5053926;28;19924;-84
2024/04/04 04:09:35;;;;;;;;;;;;;;;16.43;39.19;99445.44;5054023;28;19912;-82
2024/04/04 04:12:00;;;;;;;;;;;;;;;16.39;40.08;99444.25;5053972;28;20335;-84
2024/04/04 04:14:25;;;;;;;;;;;;;;;16.41;39.92;99441.38;5053842;28;19923;-83
2024/04/04 04:16:51;;;;;;;;;;;;;;;16.43;38.75;99447.31;5053671;28;19917;-83
2024/04/04 04:19:16;;;;;;;;;;;;;;;16.42;39.42;99446.50;5052461;28;19916;-83
2024/04/04 04:21:42;;;;;;;;;;;;;;;16.45;40.05;99442.56;5053680;28;20004;-83
2024/04/04 04:24:07;;;;;;;;;;;;;;;16.49;39.97;99449.09;5053601;28;20381;-83
2024/04/04 04:26:32;;;;;;;;;;;;;;;16.48;39.23;99453.59;5068909;28;19912;-83
2024/04/04 04:28:58;;;;;;;;;;;;;;;16.50;39.41;99451.53;5053542;28;19913;-84
2024/04/04 04:31:27;;;;;;;;;;;;;;;16.49;39.61;99457.91;5053662;28;19913;-83
2024/04/04 04:33:53;;;;;;;;;;;;;;;16.49;40.17;99451.75;5052260;28;19913;-83
2024/04/04 04:36:19;;;;;;;;;;;;;;;16.50;39.73;99459.53;5053484;28;19920;-83
2024/04/04 04:38:44;;;;;;;;;;;;;;;16.50;38.74;99456.88;5053613;28;19917;-83
2024/04/04 04:41:10;;;;;;;;;;;;;;;16.52;38.80;99452.13;5068602;28;19912;-84
2024/04/04 04:43:35;;;;;;;;;;;;;;;16.53;40.28;99456.44;5053177;28;19924;-83
2024/04/04 04:46:00;;;;;;;;;;;;;;;16.56;39.49;99460.50;5052022;28;19923;-83
2024/04/04 04:48:26;;;;;;;;;;;;;;;16.59;39.60;99456.59;5053261;28;19912;-84
2024/04/04 04:50:51;;;;;;;;;;;;;;;16.67;38.55;99453.69;5068488;28;19999;-83
2024/04/04 04:53:17;;;;;;;;;;;;;;;16.70;39.76;99454.06;5053160;28;19913;-83
2024/04/04 04:55:42;;;;;;;;;;;;;;;16.76;39.74;99455.03;5052770;28;19940;-82
2024/04/04 04:58:07;;;;;;;;;;;;;;;16.79;39.01;99455.41;5051343;28;20347;-83
2024/04/04 05:00:32;;;;;;;;;;;;;;;16.84;39.17;99452.06;5052806;28;19919;-83
2024/04/04 05:02:58;;;;;;;;;;;;;;;16.88;39.24;99447.13;5052730;28;19921;-83
2024/04/04 05:05:23;;;;;;;;;;;;;;;16.92;38.68;99453.63;5052789;28;19913;-83
2024/04/04 05:07:50;;;;;;;;;;;;;;;16.97;39.35;99457.25;5052845;28;19916;-83
2024/04/04 05:10:16;;;;;;;;;;;;;;;16.99;38.55;99447.19;5051665;28;19913;-83
2024/04/04 05:12:41;;;;;;;;;;;;;;;17.02;39.03;99445.94;5068356;28;20381;-83
2024/04/04 05:15:06;;;;;;;;;;;;;;;17.08;38.32;99455.72;5052513;28;19913;-83
2024/04/04 05:17:32;;;;;;;;;;;;;;;17.15;37.85;99462.63;5052526;28;19913;-83
2024/04/04 05:19:57;;;;;;;;;;;;;;;17.19;38.43;99457.66;5051355;28;20438;-84
2024/04/04 05:22:22;;;;;;;;;;;;;;;17.17;37.76;99462.41;5062062;28;20405;-83
2024/04/04 05:24:48;;;;;;;;;;;;;;;17.12;39.31;99465.75;5071794;28;19916;-83
2024/04/04 05:27:14;;;;;;;;;;;;;;;17.05;39.22;99459.63;5087962;28;19954;-83
2024/04/04 05:29:39;;;;;;;;;;;;;;;17.01;38.30;99473.66;5071083;28;19962;-83
2024/04/04 05:32:04;;;;;;;;;;;;;;;16.99;37.93;99468.53;5070974;28;20366;-83
2024/04/04 05:34:30;;;;;;;;;;;;;;;16.96;38.81;99470.81;5072396;28;20015;-83
2024/04/04 05:36:55;;;;;;;;;;;;;;;16.93;38.26;99479.25;5070614;28;19917;-83
2024/04/04 05:39:21;;;;;;;;;;;;;;;16.92;39.35;99475.78;5071920;28;20448;-83
2024/04/04 05:41:48;;;;;;;;;;;;;;;16.93;39.21;99479.25;5070846;28;19912;-83
2024/04/04 05:44:13;;;;;;;;;;;;;;;16.91;39.65;99481.34;5070735;28;20304;-83
2024/04/04 05:46:39;;;;;;;;;;;;;;;16.86;40.25;99482.00;5070315;28;19923;-83
2024/04/04 05:49:04;;;;;;;;;;;;;;;16.92;39.36;99480.31;5070691;28;19916;-83
2024/04/04 05:51:29;;;;;;;;;;;;;;;16.98;39.67;99490.91;5071700;28;20452;-83
2024/04/04 05:53:54;;;;;;;;;;;;;;;17.04;38.73;99484.69;5071455;28;19945;-83
2024/04/04 05:56:19;;;;;;;;;;;;;;;17.11;39.08;99489.97;5071937;28;19931;-83
2024/04/04 05:58:45;;;;;;;;;;;;;;;17.21;39.12;99482.28;5070604;28;19947;-84
2024/04/04 06:01:11;;;;;;;;;;;;;;;17.32;38.21;99491.38;5071258;28;20396;-83
2024/04/04 06:03:36;;;;;;;;;;;;;;;17.39;38.50;99487.59;5071667;28;19931;-83
2024/04/04 06:06:01;;;;;;;;;;;;;;;17.47;39.89;99489.16;5071625;28;19912;-84
2024/04/04 06:08:27;;;;;;;;;;;;;;;17.54;37.95;99492.56;5071597;28;20396;-83
2024/04/04 06:10:52;;;;;;;;;;;;;;;17.60;38.45;99496.19;5069960;28;20293;-83
2024/04/04 06:13:18;;;;;;;;;;;;;;;17.66;38.05;99493.47;5071694;28;19920;-83
2024/04/04 06:15:51;;;;;;;;;;;;;;;17.74;37.75;99495.00;5071670;28;20043;-83
2024/04/04 06:18:16;;;;;;;;;;;;;;;17.83;37.68;99495.50;5071729;28;19955;-84
2024/04/04 06:20:41;;;;;;;;;;;;;;;17.86;37.60;99500.44;5071570;28;19912;-83
2024/04/04 06:23:07;;;;;;;;;;;;;;;17.93;37.67;99501.97;5071345;28;20389;-84
2024/04/04 06:25:32;;;;;;;;;;;;;;;17.98;37.34;99496.75;5086911;28;19917;-83
2024/04/04 06:27:57;;;;;;;;;;;;;;;17.96;37.88;99498.84;5070515;28;19921;-83
2024/04/04 06:30:22;;;;;;;;;;;;;;;17.93;37.51;99493.94;5070734;28;19917;-82
2024/04/04 06:32:48;;;;;;;;;;;;;;;17.93;38.33;99512.66;5071386;28;19951;-83
2024/04/04 06:35:13;;;;;;;;;;;;;;;18.03;37.95;99504.91;5071373;28;19921;-83
2024/04/04 06:37:38;;;;;;;;;;;;;;;18.10;37.36;99502.94;5071176;28;19912;-84
2024/04/04 06:40:04;;;;;;;;;;;;;;;18.18;37.35;99507.16;5071145;28;19995;-84
2024/04/04 06:42:29;;;;;;;;;;;;;;;18.28;37.40;99506.59;5071545;28;19916;-83
2024/04/04 06:44:54;;;;;;;;;;;;;;;18.36;37.25;99512.44;5071424;28;19965;-83
2024/04/04 06:47:19;;;;;;;;;;;;;;;18.41;37.04;99509.06;5071501;28;19905;-84
2024/04/04 06:49:45;;;;;;;;;;;;;;;18.45;36.59;99520.94;5070933;28;19919;-84
2024/04/04 06:52:10;;;;;;;;;;;;;;;18.50;35.96;99514.91;5070527;28;20347;-84
2024/04/04 06:54:35;;;;;;;;;;;;;;;18.52;36.17;99508.28;5071145;28;19917;-83
2024/04/04 06:57:03;;;;;;;;;;;;;;;18.63;36.16;99498.69;5070507;28;19924;-83
2024/04/04 06:59:28;;;;;;;;;;;;;;;18.66;36.11;99499.03;5070913;28;20381;-84
2024/04/04 07:01:54;;;;;;;;;;;;;;;18.67;36.41;99489.97;5071227;28;19919;-84
2024/04/04 07:04:19;;;;;;;;;;;;;;;18.76;36.92;99497.66;5071183;28;20359;-83
2024/04/04 07:06:44;;;;;;;;;;;;;;;18.82;36.38;99489.50;5069908;28;19912;-83
2024/04/04 07:09:09;;;;;;;;;;;;;;;18.96;36.20;99496.25;5070929;28;19916;-83
2024/04/04 07:11:35;;;;;;;;;;;;;;;19.07;36.02;99486.59;5086469;28;20361;-83
2024/04/04 07:14:01;;;;;;;;;;;;;;;19.17;35.79;99486.81;5071163;28;19913;-83
2024/04/04 07:16:26;;;;;;;;;;;;;;;19.28;35.91;99477.94;5070926;28;19917;-83
2024/04/04 07:18:51;;;;;;;;;;;;;;;19.40;35.66;99479.81;5069785;28;20011;-83
2024/04/04 07:21:17;;;;;;;;;;;;;;;19.52;35.40;99480.59;5072186;28;19920;-83
2024/04/04 07:23:42;;;;;;;;;;;;;;;19.55;35.21;99485.50;5073389;28;19912;-83
2024/04/04 07:26:07;;;;;;;;;;;;;;;19.63;35.17;99480.56;5073117;28;20396;-83
2024/04/04 07:28:35;;;;;;;;;;;;;;;19.75;34.90;99487.75;5074565;28;19916;-83
2024/04/04 07:31:00;;;;;;;;;;;;;;;19.79;34.20;99480.88;5073061;28;19913;-83
2024/04/04 07:33:26;;;;;;;;;;;;;;;19.84;33.46;99480.97;5073284;28;19920;-83
2024/04/04 07:35:52;;;;;;;;;;;;;;;19.89;33.14;99481.06;5073618;28;19917;-83
2024/04/04 07:38:17;;;;;;;;;;;;;;;19.97;33.24;99475.31;5055479;28;20336;-84
2024/04/04 07:40:42;;;;;;;;;;;;;;;20.00;32.38;99480.19;5052722;28;19913;-84
2024/04/04 07:43:08;;;;;;;;;;;;;;;20.03;32.56;99481.56;5051957;28;19962;-83
2024/04/04 07:45:37;;;;;;;;;;;;;;;20.07;32.72;99483.56;5053848;28;19917;-81
2024/04/04 07:48:02;;;;;;;;;;;;;;;20.16;32.91;99482.09;5067659;28;19931;-83
2024/04/04 07:50:28;;;;;;;;;;;;;;;20.27;32.50;99488.44;5074420;28;19913;-84
2024/04/04 07:52:53;;;;;;;;;;;;;;;20.28;32.40;99476.69;5072856;28;20379;-82
2024/04/04 07:55:18;;;;;;;;;;;;;;;20.33;32.50;99486.66;5072798;28;20369;-82
2024/04/04 07:57:44;;;;;;;;;;;;;;;20.33;32.03;99484.00;5073815;28;19912;-81
2024/04/04 08:00:11;;;;;;;;;;;;;;;20.40;32.08;99482.81;5062682;28;19920;-83
2024/04/04 08:02:36;;;;;;;;;;;;;;;20.46;32.18;99481.00;5053812;28;19917;-84
2024/04/04 08:05:04;;;;;;;;;;;;;;;20.53;32.85;99478.97;5053678;28;19966;-84
2024/04/04 08:07:35;;;;;;;;;;;;;;;20.62;33.12;99486.38;5060946;28;19916;-84
2024/04/04 08:10:01;;;;;;;;;;;;;;;20.75;32.71;99485.22;5072962;28;20436;-81
2024/04/04 08:12:27;;;;;;;;;;;;;;;20.84;32.39;99488.34;5072028;28;19917;-81
2024/04/04 08:14:52;;;;;;;;;;;;;;;20.91;32.20;99489.78;5069865;28;19923;-82
2024/04/04 08:17:17;;;;;;;;;;;;;;;21.00;32.34;99492.88;5073237;28;19947;-82
2024/04/04 08:19:43;;;;;;;;;;;;;;;21.08;32.13;99483.56;5073472;28;19969;-82
2024/04/04 08:22:10;;;;;;;;;;;;;;;21.18;32.14;99486.38;5073200;28;19917;-83
2024/04/04 08:24:35;;;;;;;;;;;;;;;21.38;32.00;99475.13;5072096;28;19919;-83
2024/04/04 08:27:00;;;;;;;;;;;;;;;21.46;30.94;99483.56;5072966;28;19913;-82
2024/04/04 08:29:26;;;;;;;;;;;;;;;21.55;31.60;99481.25;5067070;28;20415;-82
2024/04/04 08:31:51;;;;;;;;;;;;;;;21.70;31.64;99477.94;5063576;28;19962;-82
2024/04/04 08:34:17;;;;;;;;;;;;;;;21.87;31.39;99473.28;5057701;28;19916;-82
2024/04/04 08:36:42;;;;;;;;;;;;;;;21.97;31.11;99476.06;5068335;28;19921;-81
2024/04/04 08:39:08;;;;;;;;;;;;;;;22.00;31.20;99478.25;5073072;28;19917;-83
2024/04/04 08:41:33;;;;;;;;;;;;;;;22.07;31.34;99467.31;5070549;28;19924;-82
2024/04/04 08:43:59;;;;;;;;;;;;;;;22.11;31.49;99471.94;5066983;28;20304;-83
2024/04/04 08:46:25;;;;;;;;;;;;;;;22.31;31.14;99471.34;5071549;28;19916;-82
2024/04/04 08:48:53;;;;;;;;;;;;;;;22.46;31.51;99474.16;5060834;28;19921;-83
2024/04/04 08:51:19;;;;;;;;;;;;;;;22.56;31.25;99475.28;5075646;28;19928;-82
2024/04/04 08:53:45;;;;;;;;;;;;;;;22.69;31.23;99480.22;5069908;28;19921;-81
2024/04/04 08:56:10;;;;;;;;;;;;;;;22.86;30.74;99466.63;5070619;28;20416;-82
2024/04/04 08:58:36;;;;;;;;;;;;;;;22.94;30.41;99464.25;5075566;28;19920;-82
2024/04/04 09:01:01;;;;;;;;;;;;;;;23.08;30.42;99464.63;5064067;28;20397;-82
2024/04/04 09:03:26;;;;;;;;;;;;;;;23.21;30.12;99466.03;5072660;28;19921;-82
2024/04/04 09:05:54;;;;;;;;;;;;;;;23.30;29.86;99454.50;5072849;28;19920;-82
2024/04/04 09:08:20;;;;;;;;;;;;;;;23.39;29.94;99460.19;5071101;28;19920;-83
2024/04/04 09:10:48;;;;;;;;;;;;;;;23.57;29.90;99446.28;5088072;28;19927;-81
2024/04/04 09:13:14;;;;;;;;;;;;;;;23.76;29.87;99441.19;5068441;28;20281;-82
2024/04/04 09:15:40;;;;;;;;;;;;;;;24.02;29.55;99439.38;5052999;28;19924;-80
2024/04/04 09:18:09;;;;;;;;;;;;;;;24.24;28.79;99437.22;5053284;28;19913;-81
2024/04/04 09:20:39;;;;;;;;;;;;;;;24.20;28.01;99436.13;5072047;28;19913;-82
2024/04/04 09:23:08;;;;;;;;;;;;;;;24.14;27.79;99433.72;5070918;28;19919;-82
2024/04/04 09:25:34;;;;;;;;;;;;;;;24.17;27.58;99428.59;5072279;28;19912;-82
2024/04/04 09:28:00;;;;;;;;;;;;;;;24.25;27.39;99424.53;5072081;28;20012;-82
2024/04/04 09:30:27;;;;;;;;;;;;;;;24.21;27.52;99426.16;5071591;28;19916;-82
2024/04/04 09:32:53;;;;;;;;;;;;;;;24.47;27.13;99413.47;5072568;28;19916;-81
2024/04/04 09:35:19;;;;;;;;;;;;;;;24.67;26.55;99416.97;5072214;28;19920;-80
2024/04/04 09:37:45;;;;;;;;;;;;;;;24.87;26.63;99416.13;5072208;28;19917;-81
2024/04/04 09:40:12;;;;;;;;;;;;;;;24.88;27.06;99419.63;5072188;28;19912;-81
2024/04/04 09:42:41;;;;;;;;;;;;;;;24.97;26.14;99415.28;5069285;28;19956;-81
2024/04/04 09:45:07;;;;;;;;;;;;;;;25.04;26.00;99423.94;5086612;28;19913;-82
2024/04/04 09:47:33;;;;;;;;;;;;;;;25.15;26.79;99416.59;5074800;28;19916;-80
2024/04/04 09:49:58;;;;;;;;;;;;;;;25.45;26.24;99421.06;5072281;28;19984;-82
2024/04/04 09:52:25;;;;;;;;;;;;;;;25.56;25.40;99418.03;5072728;28;19916;-81
2024/04/04 09:54:50;;;;;;;;;;;;;;;25.78;25.14;99411.44;5068845;28;19924;-81
2024/04/04 09:57:16;;;;;;;;;;;;;;;25.91;25.38;99425.13;5069608;28;19921;-82
2024/04/04 09:59:41;;;;;;;;;;;;;;;26.01;25.03;99418.88;5070727;28;19923;-82
2024/04/04 10:02:07;;;;;;;;;;;;;;;26.14;24.95;99412.00;5070635;28;19923;-82
2024/04/04 10:04:33;;;;;;;;;;;;;;;26.34;24.92;99411.03;5068730;28;19921;-82
2024/04/04 10:06:58;;;;;;;;;;;;;;;26.52;23.92;99413.84;5069762;28;19917;-81
2024/04/04 10:09:25;;;;;;;;;;;;;;;26.75;24.34;99400.59;5067817;28;19939;-82
2024/04/04 10:11:50;;;;;;;;;;;;;;;26.91;25.36;99410.22;5050109;28;20309;-82
2024/04/04 10:14:17;;;;;;;;;;;;;;;27.11;24.66;99403.78;5051448;28;19924;-82
2024/04/04 10:16:47;;;;;;;;;;;;;;;27.41;24.13;99403.38;5053972;28;19927;-82
2024/04/04 10:19:13;;;;;;;;;;;;;;;27.62;22.98;99393.09;5064474;28;19916;-81
2024/04/04 10:21:39;;;;;;;;;;;;;;;27.74;22.16;99393.44;5071341;28;20020;-79
2024/04/04 10:24:05;;;;;;;;;;;;;;;27.60;23.28;99387.13;5065092;28;19947;-80
2024/04/04 10:26:30;;;;;;;;;;;;;;;27.61;22.39;99388.78;5066914;28;19920;-81
2024/04/04 10:28:56;;;;;;;;;;;;;;;27.28;23.88;99384.31;5071406;28;19920;-81
2024/04/04 10:31:21;;;;;;;;;;;;;;;27.43;23.60;99381.38;5069972;28;19939;-82
2024/04/04 10:33:47;;;;;;;;;;;;;;;27.58;23.87;99374.97;5069625;28;19947;-79
2024/04/04 10:36:12;;;;;;;;;;;;;;;27.77;23.13;99375.78;5063108;28;19927;-81
2024/04/04 10:38:38;;;;;;;;;;;;;;;27.88;23.22;99368.28;5068490;28;19958;-81
2024/04/04 10:41:04;;;;;;;;;;;;;;;28.01;22.27;99367.53;5070881;28;19920;-82
2024/04/04 10:43:29;;;;;;;;;;;;;;;27.89;23.48;99373.41;5071235;28;19990;-80
2024/04/04 10:45:54;;;;;;;;;;;;;;;27.93;22.63;99360.06;5061235;28;19916;-79
2024/04/04 10:48:20;;;;;;;;;;;;;;;28.12;22.29;99364.34;5069355;28;19916;-81
2024/04/04 10:50:45;;;;;;;;;;;;;;;28.22;22.96;99363.34;5070003;28;19916;-80
2024/04/04 10:53:11;;;;;;;;;;;;;;;28.34;22.14;99362.94;5069857;28;19918;-80
2024/04/04 10:55:36;;;;;;;;;;;;;;;28.55;22.53;99363.34;5071111;28;19916;-80
2024/04/04 10:58:06;;;;;;;;;;;;;;;28.68;22.57;99359.84;5062924;28;19917;-81
2024/04/04 11:00:32;;;;;;;;;;;;;;;28.87;22.12;99359.75;5066213;28;19923;-81
2024/04/04 11:03:00;;;;;;;;;;;;;;;29.10;22.63;99356.03;5072308;28;19920;-80
2024/04/04 11:05:25;;;;;;;;;;;;;;;29.15;23.43;99349.69;5071789;28;19917;-80
2024/04/04 11:07:57;;;;;;;;;;;;;;;29.17;22.98;99353.72;5074094;28;19965;-80
2024/04/04 11:10:22;;;;;;;;;;;;;;;29.28;22.52;99352.38;5074843;28;19917;-80
2024/04/04 11:12:47;;;;;;;;;;;;;;;29.40;22.53;99343.69;5073365;28;19913;-80
2024/04/04 11:15:14;;;;;;;;;;;;;;;29.48;21.40;99342.16;5074797;28;19919;-80
2024/04/04 11:17:40;;;;;;;;;;;;;;;29.33;21.99;99340.56;5074595;28;20045;-81
2024/04/04 11:20:06;;;;;;;;;;;;;;;29.33;21.73;99337.84;5074455;28;20018;-80
2024/04/04 11:22:32;;;;;;;;;;;;;;;29.48;21.44;99340.25;5073362;28;19989;-80
2024/04/04 11:24:57;;;;;;;;;;;;;;;29.54;22.03;99332.78;5074706;28;20048;-81
2024/04/04 11:27:22;;;;;;;;;;;;;;;29.58;21.99;99337.28;5063995;28;19912;-80
2024/04/04 11:29:48;;;;;;;;;;;;;;;29.53;21.71;99331.97;5066378;28;20393;-81
2024/04/04 11:32:13;;;;;;;;;;;;;;;29.74;21.23;99329.59;5073454;28;19913;-81
2024/04/04 11:34:38;;;;;;;;;;;;;;;29.61;22.24;99331.22;5087289;28;20446;-81
2024/04/04 11:37:04;;;;;;;;;;;;;;;29.73;21.94;99323.34;5054822;28;19917;-80
2024/04/04 11:39:29;;;;;;;;;;;;;;;29.88;21.65;99318.63;5054317;28;19924;-79
2024/04/04 11:41:54;;;;;;;;;;;;;;;29.99;21.84;99322.72;5056615;28;19916;-81
2024/04/04 11:44:19;;;;;;;;;;;;;;;30.06;20.73;99316.84;5061414;28;19943;-80
2024/04/04 11:46:45;;;;;;;;;;;;;;;29.99;20.69;99314.53;5056508;28;20343;-80
2024/04/04 11:49:16;;;;;;;;;;;;;;;30.02;21.00;99319.41;5074194;28;19916;-80
2024/04/04 11:51:41;;;;;;;;;;;;;;;29.94;20.05;99314.69;5074256;28;19912;-80
2024/04/04 11:54:07;;;;;;;;;;;;;;;29.91;21.59;99316.09;5069525;28;20366;-80
2024/04/04 11:56:32;;;;;;;;;;;;;;;30.08;20.85;99317.34;5073987;28;19928;-81
2024/04/04 11:58:57;;;;;;;;;;;;;;;30.13;20.18;99314.47;5072045;28;19912;-81
2024/04/04 12:01:22;;;;;;;;;;;;;;;30.32;20.51;99315.84;5068869;28;20010;-81
2024/04/04 12:03:48;;;;;;;;;;;;;;;30.38;20.34;99313.81;5058355;28;19920;-80
2024/04/04 12:06:15;;;;;;;;;;;;;;;30.39;19.37;99309.97;5063165;28;20216;-80
2024/04/04 12:08:41;;;;;;;;;;;;;;;30.25;21.00;99310.06;5069679;28;19916;-79
2024/04/04 12:11:09;;;;;;;;;;;;;;;29.86;19.42;99310.78;5067386;28;20000;-80
2024/04/04 12:13:34;;;;;;;;;;;;;;;29.87;19.86;99306.16;5073488;28;19916;-79
2024/04/04 12:15:59;;;;;;;;;;;;;;;29.58;19.65;99303.84;5073613;28;19961;-79
2024/04/04 12:21:14;;;;;;;;;;;;;;;29.66;20.66;99293.03;5073656;28;19966;-81
2024/04/04 12:23:40;;;;;;;;;;;;;;;29.68;20.35;99293.50;5073872;28;19913;-80
2024/04/04 12:26:07;;;;;;;;;;;;;;;29.53;21.11;99296.59;5072591;28;19920;-80
2024/04/04 12:28:32;;;;;;;;;;;;;;;29.59;21.33;99284.50;5070717;28;19970;-81
2024/04/04 12:30:57;;;;;;;;;;;;;;;29.65;21.83;99290.59;5067397;28;19959;-81
2024/04/04 12:33:23;;;;;;;;;;;;;;;29.65;21.38;99279.72;5069081;28;19916;-81
2024/04/04 12:35:48;;;;;;;;;;;;;;;29.49;21.28;99281.22;5066596;28;19920;-79
2024/04/04 12:38:13;;;;;;;;;;;;;;;29.49;21.41;99283.94;5071029;28;19939;-81
2024/04/04 12:40:39;;;;;;;;;;;;;;;29.46;19.67;99284.56;5071984;28;19913;-80
2024/04/04 12:43:04;;;;;;;;;;;;;;;29.24;19.01;99279.88;5088870;28;20297;-79